createdAt,value
2019-01-11T00:01:30.096Z,32.87
2019-01-11T00:04:29.623Z,33.93
2019-01-11T00:07:09.664Z,31.37
2019-01-11T00:09:51.898Z,34.50
2019-01-11T00:12:37.378Z,28.63
2019-01-11T00:15:17.283Z,32.80
2019-01-11T00:17:59.479Z,34.03
2019-01-11T00:20:39.444Z,33.57
2019-01-11T00:23:19.430Z,33.20
2019-01-11T00:25:58.733Z,30.63
2019-01-11T00:28:38.822Z,33.10
2019-01-11T00:31:20.788Z,32.27
2019-01-11T00:34:02.919Z,35.37
2019-01-11T00:36:42.050Z,34.53
2019-01-11T00:39:21.157Z,32.33
2019-01-11T00:42:00.305Z,32.00
2019-01-11T00:44:39.649Z,30.67
2019-01-11T00:47:19.125Z,33.07
2019-01-11T00:49:59.109Z,19.43
2019-01-11T00:52:38.268Z,29.47
2019-01-11T00:55:18.228Z,29.40
2019-01-11T00:57:58.535Z,30.77
2019-01-11T01:00:38.477Z,29.30
2019-01-11T01:03:17.630Z,30.60
2019-01-11T01:05:59.889Z,29.83
2019-01-11T01:08:42.030Z,32.30
2019-01-11T01:11:21.968Z,33.07
2019-01-11T01:14:01.060Z,31.00
2019-01-11T01:16:40.316Z,31.07
2019-01-11T01:19:20.266Z,32.57
2019-01-11T01:22:00.333Z,31.40
2019-01-11T01:24:42.661Z,27.70
2019-01-11T01:27:25.023Z,28.60
2019-01-11T01:30:07.193Z,32.20
2019-01-11T01:32:46.499Z,29.67
2019-01-11T01:35:26.437Z,31.03
2019-01-11T01:38:05.588Z,31.43
2019-01-11T01:40:44.766Z,30.13
2019-01-11T01:43:26.984Z,29.43
2019-01-11T01:46:09.113Z,30.80
2019-01-11T01:48:49.063Z,27.73
2019-01-11T01:51:29.041Z,31.97
2019-01-11T01:54:11.313Z,29.57
2019-01-11T01:56:53.370Z,30.37
2019-01-11T01:59:32.525Z,27.60
2019-01-11T02:02:12.542Z,30.27
2019-01-11T02:04:51.713Z,30.00
2019-01-11T02:07:31.675Z,30.40
2019-01-11T02:10:10.682Z,30.33
2019-01-11T02:12:53.190Z,30.77
2019-01-11T02:15:33.215Z,33.23
2019-01-11T02:18:15.425Z,32.43
2019-01-11T02:20:57.483Z,32.67
2019-01-11T02:23:36.571Z,32.20
2019-01-11T02:26:15.735Z,30.90
2019-01-11T02:28:55.697Z,32.43
2019-01-11T02:31:35.700Z,32.90
2019-01-11T02:34:14.908Z,37.70
2019-01-11T02:36:55.179Z,34.00
2019-01-11T02:39:34.869Z,32.00
2019-01-11T02:42:16.776Z,32.80
2019-01-11T02:44:56.831Z,35.97
2019-01-11T02:47:35.999Z,35.33
2019-01-11T02:50:15.118Z,34.10
2019-01-11T02:52:57.012Z,38.83
2019-01-11T02:55:37.055Z,37.33
2019-01-11T02:58:16.981Z,36.77
2019-01-11T03:00:56.200Z,38.67
2019-01-11T03:03:38.366Z,38.77
2019-01-11T03:06:20.847Z,38.37
2019-01-11T03:09:00.016Z,39.53
2019-01-11T03:11:42.451Z,38.47
2019-01-11T03:14:19.874Z,37.87
2019-01-11T03:17:02.688Z,39.37
2019-01-11T03:19:47.704Z,43.27
2019-01-11T03:22:23.094Z,38.50
2019-01-11T03:25:05.393Z,40.93
2019-01-11T03:27:47.474Z,41.60
2019-01-11T03:30:27.528Z,41.67
2019-01-11T03:33:06.618Z,42.37
2019-01-11T03:35:45.977Z,40.47
2019-01-11T03:38:25.946Z,40.37
2019-01-11T03:41:03.125Z,41.60
2019-01-11T03:43:49.357Z,42.83
2019-01-11T03:46:48.498Z,42.30
2019-01-11T03:49:33.625Z,41.40
2019-01-11T03:52:13.206Z,44.43
2019-01-11T03:54:55.355Z,43.83
2019-01-11T03:57:34.620Z,43.70
2019-01-11T04:00:13.997Z,45.50
2019-01-11T04:02:56.116Z,43.60
2019-01-11T04:05:35.344Z,41.77
2019-01-11T04:08:15.243Z,41.47
2019-01-11T04:10:55.388Z,41.53
2019-01-11T04:13:34.508Z,44.07
2019-01-11T04:16:16.473Z,44.10
2019-01-11T04:18:57.440Z,43.27
2019-01-11T04:21:34.638Z,43.63
2019-01-11T04:27:22.301Z,43.23
2019-01-11T04:30:01.786Z,43.20
2019-01-11T04:32:41.765Z,45.10
2019-01-11T04:35:21.726Z,43.23
2019-01-11T04:38:01.788Z,44.37
2019-01-11T04:40:44.114Z,43.73
2019-01-11T04:43:26.390Z,42.70
2019-01-11T04:46:06.357Z,44.43
2019-01-11T04:48:46.532Z,41.07
2019-01-11T04:51:26.506Z,43.97
2019-01-11T04:54:03.745Z,43.77
2019-01-11T04:56:49.871Z,41.43
2019-01-11T04:59:29.592Z,40.47
2019-01-11T05:02:08.738Z,42.13
2019-01-11T05:04:47.977Z,41.37
2019-01-11T05:07:27.233Z,42.60
2019-01-11T05:10:06.575Z,42.47
2019-01-11T05:12:46.543Z,43.30
2019-01-11T05:15:26.545Z,44.93
2019-01-11T05:18:06.588Z,42.90
2019-01-11T05:20:48.929Z,43.00
2019-01-11T05:23:31.105Z,41.80
2019-01-11T05:26:10.235Z,40.37
2019-01-11T05:28:50.144Z,43.67
2019-01-11T05:31:32.148Z,39.87
2019-01-11T05:34:11.912Z,38.33
2019-01-11T05:36:51.894Z,41.00
2019-01-11T05:39:34.140Z,41.53
2019-01-11T05:42:16.275Z,42.33
2019-01-11T05:44:56.357Z,43.57
2019-01-11T05:47:38.504Z,40.63
2019-01-11T05:50:23.823Z,41.83
2019-01-11T05:52:58.775Z,42.03
2019-01-11T05:55:44.875Z,41.77
2019-01-11T05:58:30.845Z,40.13
2019-01-11T06:01:30.171Z,40.53
2019-01-11T06:04:12.108Z,39.47
2019-01-11T06:07:14.094Z,41.43
2019-01-11T06:09:53.348Z,39.10
2019-01-11T06:12:32.587Z,40.73
2019-01-11T06:15:12.042Z,41.47
2019-01-11T06:18:11.146Z,41.30
2019-01-11T06:20:50.275Z,39.07
2019-01-11T06:23:30.267Z,39.50
2019-01-11T06:26:10.165Z,40.97
2019-01-11T06:28:52.348Z,40.30
2019-01-11T06:31:31.524Z,37.23
2019-01-11T06:34:10.658Z,38.93
2019-01-11T06:36:49.876Z,37.00
2019-01-11T06:39:28.983Z,36.23
2019-01-11T06:42:10.915Z,36.07
2019-01-11T06:45:10.314Z,37.63
2019-01-11T06:47:50.228Z,35.63
2019-01-11T06:50:36.454Z,37.00
2019-01-11T06:53:16.479Z,35.23
2019-01-11T06:55:56.423Z,34.60
2019-01-11T06:58:35.596Z,36.37
2019-01-11T07:01:15.546Z,34.23
2019-01-11T07:04:14.736Z,33.20
2019-01-11T07:06:56.890Z,33.87
2019-01-11T07:09:56.300Z,35.57
2019-01-11T07:12:36.334Z,33.03
2019-01-11T07:15:16.537Z,31.20
2019-01-11T07:17:56.456Z,34.47
2019-01-11T07:20:35.576Z,33.33
2019-01-11T07:23:15.395Z,32.33
2019-01-11T07:25:57.542Z,32.67
2019-01-11T07:28:39.746Z,33.80
2019-01-11T07:31:21.746Z,28.27
2019-01-11T07:34:01.465Z,30.10
2019-01-11T07:36:43.636Z,29.07
2019-01-11T07:39:26.940Z,30.70
2019-01-11T07:42:08.986Z,27.30
2019-01-11T07:44:48.681Z,29.07
2019-01-11T07:47:28.617Z,28.70
2019-01-11T07:50:10.690Z,30.63
2019-01-11T07:52:52.779Z,27.97
2019-01-11T07:55:32.825Z,26.53
2019-01-11T07:58:09.998Z,26.77
2019-01-11T08:00:58.725Z,26.33
2019-01-11T08:03:38.017Z,26.73
2019-01-11T08:06:17.961Z,24.80
2019-01-11T08:08:44.155Z,25.33
2019-01-11T08:11:10.320Z,25.93
2019-01-11T08:13:49.483Z,27.33
2019-01-11T08:16:48.877Z,23.30
2019-01-11T08:19:28.509Z,25.50
2019-01-11T08:22:09.577Z,27.70
2019-01-11T08:24:50.535Z,25.80
2019-01-11T08:27:29.712Z,26.57
2019-01-11T08:30:08.757Z,25.30
2019-01-11T08:32:48.693Z,25.70
2019-01-11T08:35:30.781Z,26.53
2019-01-11T08:38:10.825Z,25.80
2019-01-11T08:40:50.882Z,25.20
2019-01-11T08:43:50.940Z,24.43
2019-01-11T08:46:33.001Z,23.50
2019-01-11T08:49:12.978Z,23.13
2019-01-11T08:51:52.214Z,19.20
2019-01-11T08:54:31.370Z,16.73
2019-01-11T08:57:10.747Z,17.57
2019-01-11T08:59:50.809Z,16.63
2019-01-11T09:02:29.995Z,16.83
2019-01-11T09:05:07.189Z,15.70
2019-01-11T09:07:55.857Z,16.93
2019-01-11T09:10:35.898Z,15.33
2019-01-11T09:13:13.106Z,14.97
2019-01-11T09:15:58.365Z,15.50
2019-01-11T09:18:39.397Z,13.93
2019-01-11T09:21:18.756Z,14.80
2019-01-11T09:23:58.077Z,14.57
2019-01-11T09:26:38.191Z,13.77
2019-01-11T09:29:17.332Z,14.10
2019-01-11T09:31:57.646Z,14.17
2019-01-11T09:34:37.757Z,13.97
2019-01-11T09:37:17.575Z,14.60
2019-01-11T09:39:55.024Z,15.03
2019-01-11T09:43:04.456Z,15.03
2019-01-11T09:46:04.246Z,13.07
2019-01-11T09:48:41.455Z,15.17
2019-01-11T09:51:30.216Z,15.90
2019-01-11T09:54:09.682Z,15.50
2019-01-11T09:56:48.806Z,15.27
2019-01-11T09:59:27.946Z,15.53
2019-01-11T10:02:12.772Z,14.83
2019-01-11T10:05:12.226Z,14.23
2019-01-11T10:08:11.441Z,13.93
2019-01-11T10:11:10.711Z,14.80
2019-01-11T10:14:09.865Z,13.47
2019-01-11T10:17:08.993Z,14.47
2019-01-11T10:19:51.606Z,12.63
2019-01-11T10:22:31.137Z,15.17
2019-01-11T10:25:10.263Z,14.43
2019-01-11T10:27:50.317Z,14.57
2019-01-11T10:30:30.304Z,13.97
2019-01-11T10:33:12.383Z,13.70
2019-01-11T10:36:11.676Z,14.00
2019-01-11T10:38:56.840Z,14.53
2019-01-11T10:41:56.203Z,13.17
2019-01-11T10:44:36.121Z,13.60
2019-01-11T10:47:18.403Z,13.67
2019-01-11T10:50:17.571Z,12.50
2019-01-11T10:52:59.814Z,12.03
2019-01-11T10:55:41.761Z,12.73
2019-01-11T10:58:21.832Z,12.83
2019-01-11T11:01:01.061Z,13.17
2019-01-11T11:03:41.010Z,11.53
2019-01-11T11:06:20.119Z,10.03
2019-01-11T11:09:00.131Z,10.77
2019-01-11T11:11:42.391Z,9.47
2019-01-11T11:14:41.497Z,10.13
2019-01-11T11:17:23.504Z,9.37
2019-01-11T11:20:02.856Z,8.03
2019-01-11T11:22:40.118Z,8.60
2019-01-11T11:25:26.156Z,7.93
2019-01-11T11:28:06.022Z,6.77
2019-01-11T11:30:51.026Z,7.10
2019-01-11T11:33:29.262Z,6.70
2019-01-11T11:36:08.296Z,6.93
2019-01-11T11:38:48.327Z,7.43
2019-01-11T11:41:28.222Z,8.10
2019-01-11T11:44:27.575Z,6.03
2019-01-11T11:47:09.598Z,6.70
2019-01-11T11:49:51.874Z,6.43
2019-01-11T11:52:34.092Z,6.27
2019-01-11T11:55:16.029Z,5.63
2019-01-11T11:57:55.998Z,6.27
2019-01-11T12:00:35.033Z,5.73
2019-01-11T12:03:34.128Z,5.70
2019-01-11T12:06:33.272Z,5.67
2019-01-11T12:09:32.957Z,5.50
2019-01-11T12:12:12.118Z,5.90
2019-01-11T12:14:52.065Z,5.20
2019-01-11T12:17:34.166Z,5.60
2019-01-11T12:20:16.653Z,5.43
2019-01-11T12:22:55.885Z,5.47
2019-01-11T12:25:35.038Z,4.60
2019-01-11T12:28:14.088Z,4.50
2019-01-11T12:30:56.308Z,5.00
2019-01-11T12:33:55.698Z,4.03
2019-01-11T12:36:54.837Z,4.53
2019-01-11T12:39:35.199Z,4.17
2019-01-11T12:42:21.308Z,4.07
2019-01-11T12:45:20.589Z,4.17
2019-01-11T12:48:02.670Z,4.70
2019-01-11T12:50:41.731Z,4.03
2019-01-11T12:53:21.763Z,4.53
2019-01-11T12:56:00.906Z,4.40
2019-01-11T12:58:39.971Z,4.30
2019-01-11T13:01:39.298Z,4.20
2019-01-11T13:04:38.786Z,4.07
2019-01-11T13:07:18.741Z,4.60
2019-01-11T13:09:58.710Z,4.43
2019-01-11T13:12:36.021Z,5.23
2019-01-11T13:15:22.145Z,5.07
2019-01-11T13:18:01.921Z,5.03
2019-01-11T13:20:44.013Z,4.33
2019-01-11T13:23:43.118Z,4.53
2019-01-11T13:26:42.324Z,5.33
2019-01-11T13:29:24.641Z,4.57
2019-01-11T13:32:06.576Z,4.37
2019-01-11T13:34:46.551Z,3.43
2019-01-11T13:37:26.625Z,3.10
2019-01-11T13:40:06.677Z,3.23
2019-01-11T13:43:05.934Z,2.43
2019-01-11T13:45:47.858Z,2.93
2019-01-11T13:48:27.083Z,2.77
2019-01-11T13:51:10.183Z,3.50
2019-01-11T13:53:52.284Z,4.07
2019-01-11T13:56:34.534Z,4.20
2019-01-11T13:59:34.530Z,3.67
2019-01-11T14:02:16.631Z,4.23
2019-01-11T14:04:55.793Z,4.43
2019-01-11T14:07:35.742Z,4.33
2019-01-11T14:10:15.675Z,4.10
2019-01-11T14:12:57.800Z,4.03
2019-01-11T14:15:37.018Z,3.47
2019-01-11T14:18:17.083Z,3.53
2019-01-11T14:20:56.085Z,5.03
2019-01-11T14:23:35.355Z,3.83
2019-01-11T14:26:14.469Z,4.00
2019-01-11T14:28:57.520Z,4.30
2019-01-11T14:31:40.036Z,4.37
2019-01-11T14:34:39.280Z,3.73
2019-01-11T14:37:21.435Z,3.80
2019-01-11T14:40:20.816Z,4.60
2019-01-11T14:43:20.474Z,3.80
2019-01-11T14:46:00.111Z,4.80
2019-01-11T14:48:42.262Z,4.20
2019-01-11T14:51:41.352Z,4.73
2019-01-11T14:54:23.794Z,4.70
2019-01-11T14:57:23.048Z,4.23
2019-01-11T15:00:02.128Z,3.63
2019-01-11T15:02:41.545Z,3.60
2019-01-11T15:05:20.808Z,4.67
2019-01-11T15:08:00.933Z,3.27
2019-01-11T15:10:40.957Z,3.50
2019-01-11T15:13:20.869Z,4.30
2019-01-11T15:16:23.947Z,3.33
2019-01-11T15:19:06.142Z,3.90
2019-01-11T15:22:06.026Z,3.67
2019-01-11T15:24:45.495Z,3.63
2019-01-11T15:27:27.495Z,3.43
2019-01-11T15:30:07.591Z,3.37
2019-01-11T15:32:46.816Z,3.43
2019-01-11T15:35:26.807Z,3.70
2019-01-11T15:38:07.538Z,3.87
2019-01-11T15:40:49.970Z,4.10
2019-01-11T15:43:29.126Z,3.27
2019-01-11T15:46:14.937Z,3.40
2019-01-11T15:48:53.203Z,5.40
2019-01-11T15:51:52.425Z,3.53
2019-01-11T15:54:51.677Z,4.00
2019-01-11T15:57:51.079Z,3.60
2019-01-11T16:00:30.210Z,4.07
2019-01-11T16:03:29.848Z,2.80
2019-01-11T16:06:10.019Z,3.40
2019-01-11T16:08:49.144Z,3.27
2019-01-11T16:11:48.413Z,3.33
2019-01-11T16:14:28.457Z,3.73
2019-01-11T16:17:10.638Z,3.53
2019-01-11T16:20:09.705Z,3.90
2019-01-11T16:22:51.653Z,4.60
2019-01-11T16:25:30.927Z,3.33
2019-01-11T16:28:10.275Z,3.83
2019-01-11T16:30:50.149Z,4.57
2019-01-11T16:33:32.309Z,4.50
2019-01-11T16:36:31.542Z,5.13
2019-01-11T16:39:30.785Z,5.13
2019-01-11T16:42:30.129Z,3.90
2019-01-11T16:45:29.261Z,5.00
2019-01-11T16:48:08.340Z,3.63
2019-01-11T16:50:47.445Z,3.27
2019-01-11T16:53:26.789Z,3.03
2019-01-11T16:56:05.947Z,3.00
2019-01-11T16:58:45.000Z,2.60
2019-01-11T17:01:24.350Z,2.63
2019-01-11T17:04:03.496Z,3.47
2019-01-11T17:06:43.685Z,3.03
2019-01-11T17:09:23.629Z,4.07
2019-01-11T17:12:02.916Z,2.53
2019-01-11T17:14:41.977Z,2.83
2019-01-11T17:17:21.028Z,2.33
2019-01-11T17:20:03.160Z,2.47
2019-01-11T17:23:02.486Z,2.63
2019-01-11T17:25:44.418Z,2.23
2019-01-11T17:28:26.742Z,3.30
2019-01-11T17:31:26.601Z,4.17
2019-01-11T17:34:05.982Z,4.57
2019-01-11T17:36:45.053Z,5.40
2019-01-11T17:39:24.404Z,4.53
2019-01-11T17:42:04.440Z,4.83
2019-01-11T17:44:43.675Z,4.70
2019-01-11T17:47:22.807Z,4.27
2019-01-11T17:50:05.397Z,4.53
2019-01-11T17:52:45.407Z,4.67
2019-01-11T17:55:24.716Z,5.33
2019-01-11T17:57:53.988Z,4.37
2019-01-11T18:01:00.032Z,6.03
2019-01-11T18:03:39.281Z,4.87
2019-01-11T18:06:18.520Z,5.80
2019-01-11T18:08:58.495Z,6.67
2019-01-11T18:11:37.525Z,4.60
2019-01-11T18:14:16.672Z,5.90
2019-01-11T18:16:55.820Z,5.40
2019-01-11T18:19:35.089Z,4.80
2019-01-11T18:22:15.046Z,6.13
2019-01-11T18:24:54.164Z,5.00
2019-01-11T18:27:33.229Z,3.93
2019-01-11T18:30:12.545Z,5.80
2019-01-11T18:32:49.783Z,5.77
2019-01-11T18:35:35.837Z,4.47
2019-01-11T18:38:15.759Z,4.83
2019-01-11T18:40:57.974Z,3.60
2019-01-11T18:43:57.223Z,5.60
2019-01-11T18:46:56.326Z,5.47
2019-01-11T18:49:55.575Z,4.27
2019-01-11T18:52:37.697Z,5.33
2019-01-11T18:55:36.980Z,5.30
2019-01-11T18:58:16.051Z,4.57
2019-01-11T19:00:55.390Z,4.33
2019-01-11T19:03:34.680Z,3.47
2019-01-11T19:06:13.916Z,5.10
2019-01-11T19:08:53.116Z,4.47
2019-01-11T19:11:32.470Z,4.47
2019-01-11T19:14:34.707Z,4.33
2019-01-11T19:17:36.918Z,4.40
2019-01-11T19:20:36.648Z,5.20
2019-01-11T19:23:35.642Z,4.87
2019-01-11T19:26:58.126Z,3.57
2019-01-11T19:29:57.637Z,4.17
2019-01-11T19:32:56.894Z,4.87
2019-01-11T19:35:56.073Z,3.33
2019-01-11T19:38:55.185Z,4.40
2019-01-11T19:41:54.504Z,3.83
2019-01-11T19:44:53.510Z,4.13
2019-01-11T19:47:53.049Z,3.83
2019-01-11T19:50:32.850Z,4.27
2019-01-11T19:53:14.884Z,3.50
2019-01-11T19:56:14.032Z,4.40
2019-01-11T19:58:56.395Z,3.83
2019-01-11T20:01:55.565Z,3.17
2019-01-11T20:04:54.570Z,2.93
2019-01-11T20:07:36.723Z,3.90
2019-01-11T20:10:35.982Z,3.47
2019-01-11T20:13:36.164Z,3.60
2019-01-11T20:16:40.311Z,5.37
2019-01-11T20:19:22.510Z,4.53
2019-01-11T20:22:04.722Z,3.80
2019-01-11T20:24:47.031Z,3.93
2019-01-11T20:27:28.961Z,3.90
2019-01-11T20:30:28.119Z,3.77
2019-01-11T20:33:27.330Z,3.50
2019-01-11T20:36:26.360Z,4.30
2019-01-11T20:39:08.640Z,4.40
2019-01-11T20:42:11.006Z,5.83
2019-01-11T20:45:30.385Z,4.63
2019-01-11T20:48:29.621Z,4.20
2019-01-11T20:51:31.958Z,4.03
2019-01-11T20:54:11.127Z,4.60
2019-01-11T20:56:50.331Z,4.77
2019-01-11T20:59:29.527Z,3.73
2019-01-11T21:02:08.618Z,3.50
2019-01-11T21:04:47.722Z,3.40
2019-01-11T21:07:27.530Z,3.97
2019-01-11T21:10:09.701Z,4.07
2019-01-11T21:12:51.840Z,3.47
2019-01-11T21:15:33.969Z,3.13
2019-01-11T21:18:13.039Z,4.13
2019-01-11T21:20:52.219Z,3.87
2019-01-11T21:23:31.459Z,4.13
2019-01-11T21:26:10.741Z,4.57
2019-01-11T21:28:48.069Z,3.40
2019-01-11T21:31:34.126Z,4.43
2019-01-11T21:34:13.310Z,3.73
2019-01-11T21:36:50.445Z,3.93
2019-01-11T21:39:59.378Z,3.63
2019-01-11T21:42:38.464Z,4.60
2019-01-11T21:45:37.776Z,3.87
2019-01-11T21:48:16.898Z,4.30
2019-01-11T21:50:59.114Z,4.33
2019-01-11T21:53:36.326Z,4.37
2019-01-11T21:56:22.387Z,4.10
2019-01-11T21:59:21.469Z,2.97
2019-01-11T22:02:03.355Z,3.63
2019-01-11T22:04:40.652Z,3.90
2019-01-11T22:07:26.712Z,3.57
2019-01-11T22:10:06.541Z,3.60
2019-01-11T22:12:47.649Z,3.37
2019-01-11T22:15:27.644Z,3.70
2019-01-11T22:17:54.003Z,3.00
2019-01-11T22:20:40.105Z,3.00
2019-01-11T22:23:23.907Z,3.50
2019-01-11T22:26:00.676Z,3.00
2019-01-11T22:28:40.779Z,2.80
2019-01-11T22:31:19.917Z,3.37
2019-01-11T22:33:57.170Z,3.53
2019-01-11T22:36:49.028Z,3.07
2019-01-11T22:39:29.045Z,2.80
2019-01-11T22:42:08.436Z,3.33
2019-01-11T22:44:47.705Z,3.13
2019-01-11T22:47:26.912Z,2.70
2019-01-11T22:50:06.058Z,2.67
2019-01-11T22:52:46.117Z,2.63
2019-01-11T22:55:23.381Z,3.03
2019-01-11T22:58:09.416Z,3.23
2019-01-11T23:00:49.254Z,3.00
2019-01-11T23:03:49.062Z,3.87
2019-01-11T23:06:28.304Z,3.67
2019-01-11T23:09:07.625Z,3.90
2019-01-11T23:11:46.762Z,3.77
2019-01-11T23:14:25.930Z,4.47
2019-01-11T23:17:06.066Z,4.40
2019-01-11T23:20:05.466Z,5.13
2019-01-11T23:22:44.665Z,5.43
2019-01-11T23:25:21.789Z,6.53
2019-01-11T23:28:07.825Z,7.20
2019-01-11T23:30:47.065Z,6.70
2019-01-11T23:33:29.391Z,6.70
2019-01-11T23:36:09.342Z,5.77
2019-01-11T23:38:51.481Z,5.13
2019-01-11T23:41:30.560Z,4.73
2019-01-11T23:44:09.653Z,3.90
2019-01-11T23:46:49.078Z,3.37
2019-01-11T23:49:28.224Z,3.23
2019-01-11T23:52:07.442Z,3.30
2019-01-11T23:54:44.725Z,3.33
2019-01-11T23:57:30.849Z,3.57
